Time;durP1;ratioP1;P1;durP2;ratioP2;P2;SDS_P1;SDS_P2;PMS_P1;PMS_P2;Temp;Humidity;BMP_temperature;BMP_pressure;BME280_temperature;BME280_humidity;BME280_pressure;Samples;Min_cycle;Max_cycle;Signal;HPM_P1;HPM_P2
2023/07/30 00:02:16;;;;;;;4.88;3.88;;;;;;;;;;5102186;27;20114;-73
2023/07/30 00:04:41;;;;;;;4.35;3.95;;;;;;;;;;5098996;28;20038;-73
2023/07/30 00:07:07;;;;;;;4.57;4.18;;;;;;;;;;5101608;28;20046;-75
2023/07/30 00:09:32;;;;;;;5.15;4.65;;;;;;;;;;5098195;27;20355;-74
2023/07/30 00:11:57;;;;;;;4.60;3.70;;;;;;;;;;5098356;28;20327;-74
2023/07/30 00:14:23;;;;;;;3.90;3.58;;;;;;;;;;5100051;28;20035;-73
2023/07/30 00:16:48;;;;;;;16.13;4.50;;;;;;;;;;5099679;28;20362;-74
2023/07/30 00:19:14;;;;;;;5.28;4.78;;;;;;;;;;5098760;28;20377;-73
2023/07/30 00:21:39;;;;;;;6.35;5.43;;;;;;;;;;5099935;28;20016;-73
2023/07/30 00:24:05;;;;;;;6.30;5.40;;;;;;;;;;5097146;28;20039;-74
2023/07/30 00:26:30;;;;;;;5.90;5.00;;;;;;;;;;5102150;28;20034;-75
2023/07/30 00:28:55;;;;;;;8.73;6.28;;;;;;;;;;5099088;28;20123;-74
2023/07/30 00:31:21;;;;;;;8.13;6.07;;;;;;;;;;5100000;28;20023;-76
2023/07/30 00:33:46;;;;;;;7.03;5.15;;;;;;;;;;5097569;28;20090;-74
2023/07/30 00:36:11;;;;;;;7.13;5.40;;;;;;;;;;5097374;28;20051;-74
2023/07/30 00:38:37;;;;;;;4.63;4.22;;;;;;;;;;5099269;28;20124;-74
2023/07/30 00:41:02;;;;;;;7.57;4.07;;;;;;;;;;5099840;28;20031;-74
2023/07/30 00:43:28;;;;;;;16.25;10.40;;;;;;;;;;5099754;28;20035;-76
2023/07/30 00:45:53;;;;;;;10.77;7.32;;;;;;;;;;5099755;28;20348;-75
2023/07/30 00:48:18;;;;;;;11.63;6.10;;;;;;;;;;5098834;28;20427;-74
2023/07/30 00:50:44;;;;;;;15.45;6.07;;;;;;;;;;5101887;28;20023;-76
2023/07/30 00:53:11;;;;;;;6.53;5.13;;;;;;;;;;5099288;28;20032;-74
2023/07/30 00:55:36;;;;;;;7.75;5.15;;;;;;;;;;5099872;28;20032;-74
2023/07/30 00:58:02;;;;;;;4.85;4.35;;;;;;;;;;5098253;28;20047;-76
2023/07/30 01:00:29;;;;;;;4.47;4.07;;;;;;;;;;5100579;28;20415;-74
2023/07/30 01:02:55;;;;;;;3.97;3.67;;;;;;;;;;5101014;28;20193;-74
2023/07/30 01:05:20;;;;;;;4.13;3.83;;;;;;;;;;5098508;28;21100;-74
2023/07/30 01:07:46;;;;;;;4.35;4.05;;;;;;;;;;5101097;28;20427;-73
2023/07/30 01:10:11;;;;;;;9.77;5.88;;;;;;;;;;5098752;28;20043;-73
2023/07/30 01:12:37;;;;;;;7.20;5.18;;;;;;;;;;5098569;28;20023;-76
2023/07/30 01:15:03;;;;;;;5.13;4.63;;;;;;;;;;5096861;28;20031;-74
2023/07/30 01:17:28;;;;;;;4.60;4.20;;;;;;;;;;5098497;28;20058;-74
2023/07/30 01:19:56;;;;;;;4.82;4.30;;;;;;;;;;5096386;28;20082;-75
2023/07/30 01:22:22;;;;;;;6.28;4.82;;;;;;;;;;5099419;28;20028;-74
2023/07/30 01:24:48;;;;;;;5.15;4.70;;;;;;;;;;5097727;28;20023;-75
2023/07/30 01:27:20;;;;;;;8.73;4.43;;;;;;;;;;5094327;28;20031;-74
2023/07/30 01:29:50;;;;;;;8.48;4.80;;;;;;;;;;5097075;28;20031;-75
2023/07/30 01:32:16;;;;;;;7.80;4.60;;;;;;;;;;5096919;28;20024;-76
2023/07/30 01:34:45;;;;;;;4.47;4.18;;;;;;;;;;5095661;28;20134;-73
2023/07/30 01:37:12;;;;;;;4.97;4.40;;;;;;;;;;5097589;28;20024;-76
2023/07/30 01:39:39;;;;;;;5.55;4.95;;;;;;;;;;5095669;28;20043;-73
2023/07/30 01:42:04;;;;;;;4.88;4.20;;;;;;;;;;5097199;28;20066;-74
2023/07/30 01:44:30;;;;;;;5.10;4.03;;;;;;;;;;5097114;28;20431;-73
2023/07/30 01:46:55;;;;;;;4.50;4.20;;;;;;;;;;5099304;28;20042;-73
2023/07/30 01:49:20;;;;;;;5.47;4.97;;;;;;;;;;5097340;28;20024;-73
2023/07/30 01:51:46;;;;;;;5.03;4.55;;;;;;;;;;5098000;28;20038;-74
2023/07/30 01:54:11;;;;;;;5.53;4.40;;;;;;;;;;5098124;28;20080;-73
2023/07/30 01:56:36;;;;;;;4.55;4.18;;;;;;;;;;5100705;28;20144;-76
2023/07/30 01:59:02;;;;;;;9.00;4.20;;;;;;;;;;5098440;28;20084;-74
2023/07/30 02:01:27;;;;;;;4.65;4.25;;;;;;;;;;5095389;28;20069;-73
2023/07/30 02:03:53;;;;;;;4.70;4.30;;;;;;;;;;5097365;28;20347;-74
2023/07/30 02:06:18;;;;;;;4.70;4.30;;;;;;;;;;5096984;28;20023;-74
2023/07/30 02:08:43;;;;;;;5.43;4.93;;;;;;;;;;5096930;28;20070;-73
2023/07/30 02:11:09;;;;;;;4.82;4.43;;;;;;;;;;5095724;28;20029;-75
2023/07/30 02:13:34;;;;;;;4.80;4.40;;;;;;;;;;5098034;28;20168;-74
2023/07/30 02:15:59;;;;;;;4.63;4.22;;;;;;;;;;5096694;28;20024;-74
2023/07/30 02:18:25;;;;;;;4.55;4.20;;;;;;;;;;5099213;28;20023;-74
2023/07/30 02:20:50;;;;;;;4.40;4.00;;;;;;;;;;5103597;28;20184;-73
2023/07/30 02:23:16;;;;;;;4.20;3.90;;;;;;;;;;5100473;28;20074;-75
2023/07/30 02:25:41;;;;;;;8.77;4.40;;;;;;;;;;5100640;28;20027;-73
2023/07/30 02:28:07;;;;;;;4.38;3.97;;;;;;;;;;5102908;28;20083;-73
2023/07/30 02:30:33;;;;;;;4.45;4.05;;;;;;;;;;5100078;28;20027;-75
2023/07/30 02:32:58;;;;;;;4.30;4.00;;;;;;;;;;5099748;28;20084;-74
2023/07/30 02:35:23;;;;;;;8.52;4.30;;;;;;;;;;5101790;28;20023;-74
2023/07/30 02:37:49;;;;;;;4.47;4.07;;;;;;;;;;5101511;28;20080;-76
2023/07/30 02:40:14;;;;;;;4.63;4.25;;;;;;;;;;5101051;28;20031;-76
2023/07/30 02:42:39;;;;;;;4.55;4.18;;;;;;;;;;5099602;28;20092;-74
2023/07/30 02:45:05;;;;;;;5.10;4.47;;;;;;;;;;5102437;28;20034;-75
2023/07/30 02:47:30;;;;;;;4.50;4.10;;;;;;;;;;5102270;28;20027;-74
2023/07/30 02:49:55;;;;;;;4.88;4.40;;;;;;;;;;5102080;28;20503;-76
2023/07/30 02:52:21;;;;;;;4.95;4.25;;;;;;;;;;5101079;28;20030;-73
2023/07/30 02:54:46;;;;;;;4.28;3.92;;;;;;;;;;5101247;28;20023;-74
2023/07/30 02:57:12;;;;;;;4.60;4.18;;;;;;;;;;5104277;28;20031;-74
2023/07/30 02:59:38;;;;;;;5.03;4.63;;;;;;;;;;5103743;27;20020;-75
2023/07/30 03:02:06;;;;;;;5.05;4.22;;;;;;;;;;5102791;27;20041;-74
2023/07/30 03:04:32;;;;;;;4.60;4.20;;;;;;;;;;5103032;28;20051;-74
2023/07/30 03:06:57;;;;;;;5.05;4.55;;;;;;;;;;5104400;28;20059;-74
2023/07/30 03:09:23;;;;;;;4.95;3.92;;;;;;;;;;5101386;28;20047;-76
2023/07/30 03:11:51;;;;;;;5.72;4.18;;;;;;;;;;5102616;28;20053;-74
2023/07/30 03:14:20;;;;;;;5.28;4.38;;;;;;;;;;5098793;28;20355;-73
2023/07/30 03:16:46;;;;;;;5.78;4.53;;;;;;;;;;5100594;28;20888;-73
2023/07/30 03:19:11;;;;;;;4.45;4.05;;;;;;;;;;5098975;28;20028;-74
2023/07/30 03:21:36;;;;;;;4.38;3.97;;;;;;;;;;5101301;28;20399;-74
2023/07/30 03:24:02;;;;;;;4.45;3.85;;;;;;;;;;5100489;28;20347;-73
2023/07/30 03:26:27;;;;;;;4.85;4.40;;;;;;;;;;5098206;28;20016;-73
2023/07/30 03:28:52;;;;;;;4.50;4.10;;;;;;;;;;5097715;28;20111;-73
2023/07/30 03:31:17;;;;;;;5.40;3.90;;;;;;;;;;5100812;28;20027;-74
2023/07/30 03:33:46;;;;;;;4.95;4.45;;;;;;;;;;5101201;28;20019;-73
2023/07/30 03:36:13;;;;;;;5.43;4.93;;;;;;;;;;5096397;28;20050;-73
2023/07/30 03:38:38;;;;;;;6.00;5.07;;;;;;;;;;5098543;28;20444;-73
2023/07/30 03:41:04;;;;;;;5.00;4.60;;;;;;;;;;5098183;28;20031;-74
2023/07/30 03:43:29;;;;;;;5.20;4.80;;;;;;;;;;5097311;28;20035;-75
2023/07/30 03:45:55;;;;;;;5.45;4.95;;;;;;;;;;5101862;27;20040;-75
2023/07/30 03:48:20;;;;;;;5.28;4.75;;;;;;;;;;5102203;28;20431;-74
2023/07/30 03:50:45;;;;;;;6.43;5.45;;;;;;;;;;5099713;28;20462;-75
2023/07/30 03:53:11;;;;;;;4.55;4.15;;;;;;;;;;5100834;28;20125;-73
2023/07/30 03:55:36;;;;;;;5.78;4.80;;;;;;;;;;5100554;28;20058;-74
2023/07/30 03:58:02;;;;;;;4.88;4.40;;;;;;;;;;5098606;28;20023;-73
2023/07/30 04:00:28;;;;;;;5.72;4.00;;;;;;;;;;5100616;28;20023;-74
2023/07/30 04:02:53;;;;;;;4.90;4.50;;;;;;;;;;5102180;27;20098;-74
2023/07/30 04:05:19;;;;;;;5.65;5.15;;;;;;;;;;5100422;28;20611;-75
2023/07/30 04:07:44;;;;;;;7.43;4.72;;;;;;;;;;5100935;28;20031;-75
2023/07/30 04:10:09;;;;;;;5.88;4.45;;;;;;;;;;5099081;28;20020;-74
2023/07/30 04:12:35;;;;;;;8.85;6.95;;;;;;;;;;5099050;28;20030;-75
2023/07/30 04:15:00;;;;;;;6.30;4.78;;;;;;;;;;5098558;28;20038;-74
2023/07/30 04:17:26;;;;;;;7.72;4.82;;;;;;;;;;5099429;28;20091;-74
2023/07/30 04:19:51;;;;;;;5.82;4.85;;;;;;;;;;5098801;28;20034;-74
2023/07/30 04:22:16;;;;;;;6.75;4.75;;;;;;;;;;5099920;28;20031;-77
2023/07/30 04:24:42;;;;;;;5.18;4.68;;;;;;;;;;5099458;28;20020;-74
2023/07/30 04:27:07;;;;;;;5.38;4.88;;;;;;;;;;5098475;28;20035;-74
2023/07/30 04:29:32;;;;;;;6.25;4.72;;;;;;;;;;5096293;28;20020;-76
2023/07/30 04:31:58;;;;;;;5.43;4.68;;;;;;;;;;5097946;28;20032;-74
2023/07/30 04:34:23;;;;;;;6.40;4.95;;;;;;;;;;5098541;28;20061;-74
2023/07/30 04:36:48;;;;;;;5.85;5.35;;;;;;;;;;5094188;28;20016;-73
2023/07/30 04:39:14;;;;;;;6.38;5.45;;;;;;;;;;5098511;28;20043;-73
2023/07/30 04:41:39;;;;;;;6.05;5.45;;;;;;;;;;5097324;28;20039;-72
2023/07/30 04:44:04;;;;;;;7.10;5.80;;;;;;;;;;5098162;28;20054;-73
2023/07/30 04:46:30;;;;;;;6.15;5.65;;;;;;;;;;5097614;28;20027;-73
2023/07/30 04:48:57;;;;;;;6.80;6.10;;;;;;;;;;5098807;28;20054;-73
2023/07/30 04:51:22;;;;;;;6.20;5.60;;;;;;;;;;5100659;28;20031;-73
2023/07/30 04:53:47;;;;;;;5.80;5.15;;;;;;;;;;5096552;28;20039;-74
2023/07/30 04:56:13;;;;;;;5.50;5.10;;;;;;;;;;5096653;28;20133;-73
2023/07/30 04:58:38;;;;;;;6.35;4.95;;;;;;;;;;5100969;28;20055;-73
2023/07/30 05:01:03;;;;;;;6.20;5.57;;;;;;;;;;5098889;28;20089;-72
2023/07/30 05:03:29;;;;;;;5.45;4.95;;;;;;;;;;5095998;28;20039;-73
2023/07/30 05:05:54;;;;;;;5.18;4.72;;;;;;;;;;5100122;28;20035;-73
2023/07/30 05:08:19;;;;;;;6.05;5.05;;;;;;;;;;5097770;28;20030;-75
2023/07/30 05:10:45;;;;;;;6.28;4.88;;;;;;;;;;5097128;28;20020;-73
2023/07/30 05:13:12;;;;;;;5.43;4.88;;;;;;;;;;5095610;28;20077;-72
2023/07/30 05:15:38;;;;;;;5.82;4.47;;;;;;;;;;5098782;28;20043;-73
2023/07/30 05:18:03;;;;;;;5.05;4.60;;;;;;;;;;5094275;28;20031;-73
2023/07/30 05:20:28;;;;;;;4.47;4.07;;;;;;;;;;5099527;28;20023;-73
2023/07/30 05:22:54;;;;;;;7.43;5.00;;;;;;;;;;5097539;28;20046;-74
2023/07/30 05:25:19;;;;;;;4.85;4.45;;;;;;;;;;5097286;28;20031;-73
2023/07/30 05:27:44;;;;;;;5.53;5.03;;;;;;;;;;5100106;28;20080;-73
2023/07/30 05:30:10;;;;;;;4.85;4.35;;;;;;;;;;5093725;28;20027;-75
2023/07/30 05:32:35;;;;;;;4.60;4.20;;;;;;;;;;5099881;28;20016;-73
2023/07/30 05:35:01;;;;;;;5.10;4.70;;;;;;;;;;5098142;28;20040;-74
2023/07/30 05:37:27;;;;;;;6.20;4.57;;;;;;;;;;5096964;28;20020;-73
2023/07/30 05:39:52;;;;;;;5.10;4.53;;;;;;;;;;5095239;28;20503;-74
2023/07/30 05:42:17;;;;;;;5.47;4.85;;;;;;;;;;5099038;28;20034;-74
2023/07/30 05:44:43;;;;;;;5.10;4.70;;;;;;;;;;5097533;28;20495;-73
2023/07/30 05:47:08;;;;;;;6.22;4.70;;;;;;;;;;5096351;28;20034;-74
2023/07/30 05:49:33;;;;;;;4.80;4.40;;;;;;;;;;5099388;28;20032;-76
2023/07/30 05:51:59;;;;;;;5.10;4.60;;;;;;;;;;5099314;28;20122;-74
2023/07/30 05:54:24;;;;;;;5.72;5.13;;;;;;;;;;5104512;28;20381;-73
2023/07/30 05:56:49;;;;;;;4.80;4.38;;;;;;;;;;5103012;28;20074;-75
2023/07/30 05:59:15;;;;;;;5.38;4.88;;;;;;;;;;5099663;28;20062;-77
2023/07/30 06:01:40;;;;;;;4.97;4.57;;;;;;;;;;5100990;28;20040;-73
2023/07/30 06:04:05;;;;;;;7.90;5.47;;;;;;;;;;5101255;27;20515;-73
2023/07/30 06:06:31;;;;;;;6.60;5.90;;;;;;;;;;5100133;28;20354;-73
2023/07/30 06:08:56;;;;;;;5.38;4.90;;;;;;;;;;5100822;28;20039;-73
2023/07/30 06:11:22;;;;;;;4.97;4.57;;;;;;;;;;5097625;28;20036;-74
2023/07/30 06:13:47;;;;;;;5.28;4.78;;;;;;;;;;5102771;28;20050;-74
2023/07/30 06:16:13;;;;;;;5.30;4.28;;;;;;;;;;5103183;28;20106;-74
2023/07/30 06:18:38;;;;;;;4.53;4.13;;;;;;;;;;5103216;27;20336;-73
2023/07/30 06:21:04;;;;;;;4.47;4.07;;;;;;;;;;5103405;28;20032;-75
2023/07/30 06:23:29;;;;;;;4.47;4.07;;;;;;;;;;5103959;28;20030;-73
2023/07/30 06:25:54;;;;;;;4.43;4.03;;;;;;;;;;5101787;28;20036;-74
2023/07/30 06:28:20;;;;;;;4.30;3.97;;;;;;;;;;5103275;28;20031;-73
2023/07/30 06:30:45;;;;;;;4.30;4.00;;;;;;;;;;5102114;28;20370;-74
2023/07/30 06:33:10;;;;;;;4.30;4.00;;;;;;;;;;5102017;28;20050;-74
2023/07/30 06:35:36;;;;;;;3.83;3.53;;;;;;;;;;5101113;28;20016;-74
2023/07/30 06:38:01;;;;;;;4.95;4.45;;;;;;;;;;5099438;28;20047;-73
2023/07/30 06:40:27;;;;;;;4.45;4.05;;;;;;;;;;5102492;28;20027;-73
2023/07/30 06:42:52;;;;;;;4.45;3.60;;;;;;;;;;5099759;28;20028;-74
2023/07/30 06:45:17;;;;;;;3.95;3.60;;;;;;;;;;5099750;28;20028;-76
2023/07/30 06:47:43;;;;;;;4.30;3.90;;;;;;;;;;5096377;28;20032;-74
2023/07/30 06:50:08;;;;;;;4.38;4.07;;;;;;;;;;5100430;27;20393;-73
2023/07/30 06:52:34;;;;;;;4.07;3.78;;;;;;;;;;5098381;28;20039;-74
2023/07/30 06:55:00;;;;;;;4.57;3.95;;;;;;;;;;5099632;28;20036;-74
2023/07/30 06:57:25;;;;;;;3.88;3.58;;;;;;;;;;5102745;28;20103;-73
2023/07/30 06:59:51;;;;;;;4.22;3.92;;;;;;;;;;5101278;27;20447;-74
2023/07/30 07:02:16;;;;;;;3.78;3.47;;;;;;;;;;5102995;28;20497;-74
2023/07/30 07:04:41;;;;;;;4.57;3.40;;;;;;;;;;5101495;28;20036;-73
2023/07/30 07:07:07;;;;;;;4.10;3.80;;;;;;;;;;5101165;27;20031;-76
2023/07/30 07:09:32;;;;;;;4.53;3.50;;;;;;;;;;5102815;28;20028;-74
2023/07/30 07:11:58;;;;;;;5.32;3.58;;;;;;;;;;5100491;28;21255;-75
2023/07/30 07:14:23;;;;;;;4.13;3.72;;;;;;;;;;5098000;28;20065;-73
2023/07/30 07:16:49;;;;;;;3.90;3.60;;;;;;;;;;5100822;28;20134;-73
2023/07/30 07:19:14;;;;;;;4.05;3.72;;;;;;;;;;5102151;28;20459;-75
2023/07/30 07:21:39;;;;;;;4.05;3.72;;;;;;;;;;5097063;28;20015;-73
2023/07/30 07:24:05;;;;;;;3.63;3.33;;;;;;;;;;5102255;28;20039;-73
2023/07/30 07:26:30;;;;;;;4.00;3.55;;;;;;;;;;5102475;28;20020;-72
2023/07/30 07:28:56;;;;;;;3.97;3.67;;;;;;;;;;5098525;27;20065;-75
2023/07/30 07:31:21;;;;;;;3.90;3.60;;;;;;;;;;5098920;28;20070;-75
2023/07/30 07:33:46;;;;;;;4.05;3.50;;;;;;;;;;5101383;28;20400;-75
2023/07/30 07:36:14;;;;;;;3.78;3.47;;;;;;;;;;5099058;28;20474;-73
2023/07/30 07:38:39;;;;;;;3.75;3.45;;;;;;;;;;5100435;28;20725;-72
2023/07/30 07:41:04;;;;;;;3.85;3.53;;;;;;;;;;5098399;28;20102;-74
2023/07/30 07:43:30;;;;;;;3.70;3.40;;;;;;;;;;5100227;27;20032;-73
2023/07/30 07:45:55;;;;;;;3.65;3.35;;;;;;;;;;5098901;28;20437;-72
2023/07/30 07:48:21;;;;;;;4.32;3.47;;;;;;;;;;5099012;28;20034;-74
2023/07/30 07:50:46;;;;;;;4.97;3.40;;;;;;;;;;5100324;28;20035;-72
2023/07/30 07:53:11;;;;;;;4.45;3.50;;;;;;;;;;5100368;28;20232;-74
2023/07/30 07:55:37;;;;;;;3.63;3.10;;;;;;;;;;5100584;28;20070;-73
2023/07/30 07:58:02;;;;;;;3.60;3.25;;;;;;;;;;5096293;28;20031;-77
2023/07/30 08:00:27;;;;;;;4.13;3.63;;;;;;;;;;5099974;28;20028;-73
2023/07/30 08:02:53;;;;;;;4.30;3.38;;;;;;;;;;5102700;28;20034;-74
2023/07/30 08:05:19;;;;;;;3.65;3.35;;;;;;;;;;5096780;28;20046;-74
2023/07/30 08:07:47;;;;;;;3.78;3.00;;;;;;;;;;5100356;28;20027;-76
2023/07/30 08:10:13;;;;;;;3.45;3.15;;;;;;;;;;5100323;28;20066;-73
2023/07/30 08:12:38;;;;;;;3.20;2.90;;;;;;;;;;5099190;28;20069;-73
2023/07/30 08:15:03;;;;;;;4.40;3.35;;;;;;;;;;5098194;28;20043;-74
2023/07/30 08:17:29;;;;;;;3.25;3.05;;;;;;;;;;5100861;28;20482;-75
2023/07/30 08:19:54;;;;;;;3.38;2.88;;;;;;;;;;5099332;28;20027;-74
2023/07/30 08:22:19;;;;;;;3.40;3.10;;;;;;;;;;5098945;28;21145;-75
2023/07/30 08:24:45;;;;;;;3.42;3.20;;;;;;;;;;5100036;28;20046;-74
2023/07/30 08:27:10;;;;;;;3.40;3.10;;;;;;;;;;5101139;28;20032;-75
2023/07/30 08:29:35;;;;;;;3.58;3.25;;;;;;;;;;5100709;27;20347;-75
2023/07/30 08:32:01;;;;;;;3.60;3.30;;;;;;;;;;5102380;28;20031;-75
2023/07/30 08:34:26;;;;;;;3.10;2.90;;;;;;;;;;5100102;28;20053;-74
2023/07/30 08:36:52;;;;;;;4.47;3.10;;;;;;;;;;5099485;28;20035;-76
2023/07/30 08:39:17;;;;;;;2.72;2.53;;;;;;;;;;5096941;28;20423;-74
2023/07/30 08:41:43;;;;;;;3.20;2.47;;;;;;;;;;5098232;28;20114;-75
2023/07/30 08:44:09;;;;;;;3.28;3.00;;;;;;;;;;5097180;28;20035;-75
2023/07/30 08:46:34;;;;;;;2.88;2.67;;;;;;;;;;5096664;28;20118;-77
2023/07/30 08:49:00;;;;;;;3.33;3.03;;;;;;;;;;5096546;28;20097;-76
2023/07/30 08:51:26;;;;;;;4.05;3.00;;;;;;;;;;5094556;28;20431;-75
2023/07/30 08:53:51;;;;;;;2.72;2.53;;;;;;;;;;5095212;28;20061;-73
2023/07/30 08:56:17;;;;;;;3.17;2.97;;;;;;;;;;5098145;28;20116;-75
2023/07/30 08:58:43;;;;;;;2.90;2.70;;;;;;;;;;5100287;28;20043;-76
2023/07/30 09:01:10;;;;;;;3.30;3.00;;;;;;;;;;5100079;28;20019;-75
2023/07/30 09:03:37;;;;;;;3.33;3.03;;;;;;;;;;5097842;27;20028;-74
2023/07/30 09:06:03;;;;;;;3.20;2.90;;;;;;;;;;5093652;28;20034;-75
2023/07/30 09:08:28;;;;;;;3.38;3.10;;;;;;;;;;5097268;28;20020;-76
2023/07/30 09:10:53;;;;;;;3.00;2.78;;;;;;;;;;5097970;28;20043;-76
2023/07/30 09:13:23;;;;;;;3.03;2.83;;;;;;;;;;5095856;27;20055;-76
2023/07/30 09:15:49;;;;;;;3.10;2.90;;;;;;;;;;5094160;28;20031;-76
2023/07/30 09:18:16;;;;;;;2.88;2.67;;;;;;;;;;5097484;28;20024;-76
2023/07/30 09:20:42;;;;;;;4.22;2.80;;;;;;;;;;5094412;28;20143;-75
2023/07/30 09:23:08;;;;;;;3.33;3.13;;;;;;;;;;5096897;28;20437;-74
2023/07/30 09:25:33;;;;;;;3.42;3.13;;;;;;;;;;5097472;28;20488;-75
2023/07/30 09:27:59;;;;;;;4.60;3.05;;;;;;;;;;5095338;28;20031;-75
2023/07/30 09:30:24;;;;;;;3.65;3.20;;;;;;;;;;5095142;28;20024;-75
2023/07/30 09:32:55;;;;;;;3.17;2.95;;;;;;;;;;5097310;28;20885;-75
2023/07/30 09:35:22;;;;;;;3.30;3.05;;;;;;;;;;5099282;28;20408;-74
2023/07/30 09:37:47;;;;;;;2.97;2.78;;;;;;;;;;5095622;28;20024;-75
2023/07/30 09:40:14;;;;;;;2.90;2.70;;;;;;;;;;5096982;28;20050;-75
2023/07/30 09:42:43;;;;;;;3.10;2.88;;;;;;;;;;5098794;28;20051;-75
2023/07/30 09:45:16;;;;;;;2.85;2.65;;;;;;;;;;5098080;28;20028;-75
2023/07/30 09:47:46;;;;;;;2.83;2.63;;;;;;;;;;5100290;28;20435;-75
2023/07/30 09:50:11;;;;;;;3.58;3.28;;;;;;;;;;5097204;28;20024;-75
2023/07/30 09:52:36;;;;;;;3.83;3.40;;;;;;;;;;5097121;28;20043;-75
2023/07/30 09:55:02;;;;;;;2.97;2.78;;;;;;;;;;5098002;28;20043;-75
2023/07/30 09:57:27;;;;;;;3.55;3.10;;;;;;;;;;5098193;28;20020;-76
2023/07/30 09:59:53;;;;;;;4.38;3.28;;;;;;;;;;5095506;28;20477;-76
2023/07/30 10:02:18;;;;;;;2.97;2.78;;;;;;;;;;5095667;28;20027;-75
2023/07/30 10:04:45;;;;;;;3.13;2.83;;;;;;;;;;5096996;28;20046;-73
2023/07/30 10:07:13;;;;;;;3.42;2.90;;;;;;;;;;5097639;28;20412;-75
2023/07/30 10:09:43;;;;;;;3.15;2.90;;;;;;;;;;5096419;28;20039;-75
2023/07/30 10:12:10;;;;;;;5.40;3.50;;;;;;;;;;5098636;28;20043;-75
2023/07/30 10:14:35;;;;;;;3.20;3.00;;;;;;;;;;5096828;28;20059;-74
2023/07/30 10:17:01;;;;;;;3.28;3.08;;;;;;;;;;5097512;28;20108;-75
2023/07/30 10:19:27;;;;;;;3.10;2.90;;;;;;;;;;5097853;28;20024;-76
2023/07/30 10:22:11;;;;;;;3.00;2.80;;;;;;;;;;5096670;28;20028;-74
2023/07/30 10:24:37;;;;;;;2.97;2.78;;;;;;;;;;5093171;28;20039;-75
2023/07/30 10:27:06;;;;;;;3.30;3.00;;;;;;;;;;5095460;28;20122;-74
2023/07/30 10:29:34;;;;;;;3.33;3.03;;;;;;;;;;5093922;28;20072;-76
2023/07/30 10:32:00;;;;;;;2.97;2.77;;;;;;;;;;5100402;28;20012;-75
2023/07/30 10:34:26;;;;;;;3.30;3.00;;;;;;;;;;5096384;28;20316;-74
2023/07/30 10:36:52;;;;;;;3.33;2.85;;;;;;;;;;5096718;28;20016;-75
2023/07/30 10:39:25;;;;;;;3.40;3.10;;;;;;;;;;5096924;28;20053;-75
2023/07/30 10:41:51;;;;;;;3.33;2.95;;;;;;;;;;5097547;28;20023;-74
2023/07/30 10:44:24;;;;;;;5.43;3.75;;;;;;;;;;5100504;28;20114;-74
2023/07/30 10:46:49;;;;;;;3.00;2.75;;;;;;;;;;5099688;28;20109;-76
2023/07/30 10:49:15;;;;;;;3.22;2.92;;;;;;;;;;5098672;28;20395;-76
2023/07/30 10:51:40;;;;;;;3.15;2.85;;;;;;;;;;5100380;28;20475;-76
2023/07/30 10:54:07;;;;;;;3.22;2.92;;;;;;;;;;5095500;28;20028;-74
2023/07/30 10:56:34;;;;;;;4.47;3.10;;;;;;;;;;5096141;28;20096;-75
2023/07/30 10:58:59;;;;;;;4.93;2.95;;;;;;;;;;5098815;28;20381;-76
2023/07/30 11:01:26;;;;;;;3.60;2.90;;;;;;;;;;5100899;28;20024;-74
2023/07/30 11:03:52;;;;;;;3.30;3.10;;;;;;;;;;5097519;28;20079;-76
2023/07/30 11:06:24;;;;;;;3.13;2.90;;;;;;;;;;5102885;28;20016;-75
2023/07/30 11:08:49;;;;;;;3.95;3.50;;;;;;;;;;5102389;28;20035;-75
2023/07/30 11:11:15;;;;;;;4.90;3.33;;;;;;;;;;5099348;28;20028;-75
2023/07/30 11:13:41;;;;;;;4.25;3.30;;;;;;;;;;5096342;28;20103;-76
2023/07/30 11:16:07;;;;;;;4.15;3.75;;;;;;;;;;5099028;28;20031;-74
2023/07/30 11:18:36;;;;;;;4.90;3.50;;;;;;;;;;5099936;28;20068;-75
2023/07/30 11:21:08;;;;;;;3.58;3.28;;;;;;;;;;5097991;28;20056;-75
2023/07/30 11:23:38;;;;;;;4.57;3.40;;;;;;;;;;5097184;28;20032;-74
2023/07/30 11:26:04;;;;;;;3.65;3.20;;;;;;;;;;5100237;28;20039;-76
2023/07/30 11:28:30;;;;;;;3.53;3.22;;;;;;;;;;5097046;28;20080;-76
2023/07/30 11:30:59;;;;;;;3.63;3.30;;;;;;;;;;5099823;28;20580;-74
2023/07/30 11:33:24;;;;;;;3.90;3.33;;;;;;;;;;5099023;27;20030;-74
2023/07/30 11:35:50;;;;;;;3.55;3.28;;;;;;;;;;5099977;28;20032;-75
2023/07/30 11:38:16;;;;;;;5.40;3.58;;;;;;;;;;5097873;28;20059;-74
2023/07/30 11:40:42;;;;;;;4.03;3.65;;;;;;;;;;5097858;28;20049;-73
2023/07/30 11:43:08;;;;;;;3.85;3.50;;;;;;;;;;5100064;28;20453;-76
2023/07/30 11:45:33;;;;;;;3.63;3.33;;;;;;;;;;5099194;28;20039;-77
2023/07/30 11:48:07;;;;;;;4.03;3.63;;;;;;;;;;5100118;28;20032;-76
2023/07/30 11:50:43;;;;;;;3.10;2.90;;;;;;;;;;5097473;28;20066;-74
2023/07/30 11:53:08;;;;;;;3.00;2.80;;;;;;;;;;5099918;28;20028;-73
2023/07/30 11:55:37;;;;;;;4.10;3.72;;;;;;;;;;5098364;27;20100;-75
2023/07/30 11:58:03;;;;;;;4.95;3.72;;;;;;;;;;5098130;28;20044;-74
2023/07/30 12:00:31;;;;;;;3.70;3.30;;;;;;;;;;5099580;28;20064;-76
2023/07/30 12:02:56;;;;;;;7.45;3.78;;;;;;;;;;5100509;27;20036;-75
2023/07/30 12:05:31;;;;;;;4.13;3.75;;;;;;;;;;5096351;28;20035;-74
2023/07/30 12:07:57;;;;;;;4.03;3.45;;;;;;;;;;5098433;28;20104;-75
2023/07/30 12:10:22;;;;;;;4.00;3.70;;;;;;;;;;5096506;28;20040;-75
2023/07/30 12:12:52;;;;;;;5.30;3.88;;;;;;;;;;5093881;28;20020;-75
2023/07/30 12:15:17;;;;;;;3.75;3.45;;;;;;;;;;5100351;28;20102;-77
2023/07/30 12:17:42;;;;;;;3.40;2.92;;;;;;;;;;5094524;28;20160;-76
2023/07/30 12:20:08;;;;;;;3.70;3.40;;;;;;;;;;5101395;28;20433;-75
2023/07/30 12:22:35;;;;;;;4.55;3.17;;;;;;;;;;5100476;27;20035;-77
2023/07/30 12:25:01;;;;;;;3.50;3.20;;;;;;;;;;5098006;28;20055;-76
2023/07/30 12:27:26;;;;;;;3.60;3.30;;;;;;;;;;5098661;28;20124;-74
2023/07/30 12:29:52;;;;;;;3.60;3.30;;;;;;;;;;5098999;28;20111;-74
2023/07/30 12:32:17;;;;;;;3.63;3.35;;;;;;;;;;5095362;28;20437;-74
2023/07/30 12:34:42;;;;;;;3.83;3.50;;;;;;;;;;5097678;28;20358;-78
2023/07/30 12:37:09;;;;;;;3.35;3.05;;;;;;;;;;5102691;28;20055;-77
2023/07/30 12:39:34;;;;;;;4.50;3.85;;;;;;;;;;5095852;28;20040;-76
2023/07/30 12:42:00;;;;;;;3.53;3.22;;;;;;;;;;5097066;28;20057;-75
2023/07/30 12:44:25;;;;;;;3.35;3.15;;;;;;;;;;5098866;28;20035;-76
2023/07/30 12:46:50;;;;;;;3.88;3.45;;;;;;;;;;5096335;28;20034;-75
2023/07/30 12:49:16;;;;;;;3.95;3.60;;;;;;;;;;5095434;28;20028;-75
2023/07/30 12:51:41;;;;;;;4.70;4.18;;;;;;;;;;5099417;28;20090;-78
2023/07/30 12:54:06;;;;;;;4.63;3.25;;;;;;;;;;5098596;28;20443;-75
2023/07/30 12:56:32;;;;;;;4.50;4.10;;;;;;;;;;5099929;27;20370;-78
2023/07/30 12:58:57;;;;;;;4.40;3.47;;;;;;;;;;5097970;28;20425;-80
2023/07/30 13:01:23;;;;;;;4.47;4.07;;;;;;;;;;5096129;28;20100;-75
2023/07/30 13:03:50;;;;;;;4.18;3.75;;;;;;;;;;5097148;27;20036;-75
2023/07/30 13:06:15;;;;;;;4.00;3.65;;;;;;;;;;5096073;28;20127;-73
2023/07/30 13:08:41;;;;;;;3.92;3.55;;;;;;;;;;5095048;28;20474;-75
2023/07/30 13:11:06;;;;;;;3.67;3.33;;;;;;;;;;5099554;28;20023;-75
2023/07/30 13:13:31;;;;;;;3.90;3.60;;;;;;;;;;5094675;28;20044;-80
2023/07/30 13:15:57;;;;;;;3.83;3.53;;;;;;;;;;5098972;28;20069;-75
2023/07/30 13:18:23;;;;;;;3.88;3.58;;;;;;;;;;5097619;28;20027;-76
2023/07/30 13:20:49;;;;;;;3.75;3.42;;;;;;;;;;5095265;28;20386;-78
2023/07/30 13:23:15;;;;;;;4.25;3.85;;;;;;;;;;5098684;28;20123;-75
2023/07/30 13:25:40;;;;;;;4.15;3.33;;;;;;;;;;5096476;28;20103;-76
2023/07/30 13:28:05;;;;;;;4.20;3.80;;;;;;;;;;5095989;28;20088;-75
2023/07/30 13:30:31;;;;;;;3.90;3.60;;;;;;;;;;5097701;28;20401;-75
2023/07/30 13:32:56;;;;;;;4.55;3.65;;;;;;;;;;5095942;28;20055;-76
2023/07/30 13:35:21;;;;;;;4.45;3.80;;;;;;;;;;5097537;28;20041;-75
2023/07/30 13:37:47;;;;;;;4.07;3.50;;;;;;;;;;5098503;28;20031;-74
2023/07/30 13:40:12;;;;;;;5.18;3.42;;;;;;;;;;5095951;28;20042;-74
2023/07/30 13:42:37;;;;;;;3.70;3.40;;;;;;;;;;5095574;28;20028;-74
2023/07/30 13:45:03;;;;;;;4.10;3.70;;;;;;;;;;5094507;28;20047;-74
2023/07/30 13:47:28;;;;;;;4.03;3.72;;;;;;;;;;5098451;28;20107;-74
2023/07/30 13:49:54;;;;;;;4.07;3.67;;;;;;;;;;5096117;28;20422;-74
2023/07/30 13:52:19;;;;;;;4.72;3.40;;;;;;;;;;5097928;28;20538;-76
2023/07/30 13:54:45;;;;;;;3.78;3.47;;;;;;;;;;5095995;28;20111;-75
2023/07/30 13:57:11;;;;;;;4.40;3.33;;;;;;;;;;5093295;28;20126;-77
2023/07/30 13:59:37;;;;;;;3.92;3.53;;;;;;;;;;5096465;28;20336;-76
2023/07/30 14:02:02;;;;;;;3.50;3.20;;;;;;;;;;5092535;28;20035;-75
2023/07/30 14:04:27;;;;;;;3.67;3.38;;;;;;;;;;5096313;28;20331;-75
2023/07/30 14:06:53;;;;;;;4.57;4.00;;;;;;;;;;5099479;28;20027;-75
2023/07/30 14:09:18;;;;;;;3.83;3.53;;;;;;;;;;5096920;28;20024;-76
2023/07/30 14:11:46;;;;;;;4.18;3.78;;;;;;;;;;5095260;28;20107;-76
2023/07/30 14:14:11;;;;;;;4.53;4.13;;;;;;;;;;5100447;28;20023;-75
2023/07/30 14:16:37;;;;;;;6.20;4.18;;;;;;;;;;5102875;28;20031;-75
2023/07/30 14:19:02;;;;;;;4.15;3.40;;;;;;;;;;5101809;28;20042;-75
2023/07/30 14:21:28;;;;;;;5.45;3.83;;;;;;;;;;5102031;27;20032;-73
2023/07/30 14:23:53;;;;;;;4.20;3.80;;;;;;;;;;5099739;28;20055;-74
2023/07/30 14:26:18;;;;;;;4.72;3.72;;;;;;;;;;5098867;28;20042;-74
2023/07/30 14:28:44;;;;;;;3.95;3.65;;;;;;;;;;5102553;28;20043;-75
2023/07/30 14:31:09;;;;;;;3.70;3.40;;;;;;;;;;5099547;28;20039;-76
2023/07/30 14:33:36;;;;;;;4.00;3.63;;;;;;;;;;5098335;28;20028;-75
2023/07/30 14:36:02;;;;;;;4.20;3.60;;;;;;;;;;5102514;28;20071;-75